createdAt,value
2023-01-23T00:01:20.118Z,15.27
2023-01-23T00:03:47.230Z,14.67
2023-01-23T00:06:16.508Z,16.50
2023-01-23T00:08:45.344Z,15.57
2023-01-23T00:11:16.539Z,16.77
2023-01-23T00:13:43.380Z,15.70
2023-01-23T00:16:20.537Z,16.27
2023-01-23T00:18:47.972Z,14.97
2023-01-23T00:21:17.374Z,16.63
2023-01-23T00:23:52.974Z,16.77
2023-01-23T00:26:22.055Z,16.30
2023-01-23T00:28:49.582Z,16.13
2023-01-23T00:31:24.916Z,15.87
2023-01-23T00:33:57.954Z,16.10
2023-01-23T00:36:27.693Z,15.33
2023-01-23T00:38:54.504Z,15.87
2023-01-23T00:41:23.985Z,16.70
2023-01-23T00:43:52.178Z,17.23
2023-01-23T00:46:22.343Z,17.33
2023-01-23T00:48:49.803Z,16.17
2023-01-23T00:51:16.906Z,16.80
2023-01-23T00:53:44.393Z,17.70
2023-01-23T00:56:11.566Z,16.03
2023-01-23T00:58:38.278Z,17.17
2023-01-23T01:01:05.319Z,16.10
2023-01-23T01:03:32.153Z,16.67
2023-01-23T01:05:58.899Z,16.47
2023-01-23T01:08:25.672Z,15.97
2023-01-23T01:10:52.459Z,15.83
2023-01-23T01:13:21.519Z,15.07
2023-01-23T01:15:52.617Z,15.23
2023-01-23T01:18:20.762Z,14.70
2023-01-23T01:20:47.861Z,14.77
2023-01-23T01:23:15.188Z,14.37
2023-01-23T01:25:42.105Z,15.50
2023-01-23T01:28:08.930Z,13.63
2023-01-23T01:30:36.855Z,14.07
2023-01-23T01:33:04.420Z,14.47
2023-01-23T01:35:31.314Z,14.63
2023-01-23T01:37:58.187Z,14.93
2023-01-23T01:40:32.241Z,13.90
2023-01-23T01:43:02.807Z,14.30
2023-01-23T01:46:09.844Z,15.87
2023-01-23T01:49:01.462Z,14.13
2023-01-23T01:51:34.251Z,15.20
2023-01-23T01:54:16.319Z,14.57
2023-01-23T01:56:56.264Z,15.47
2023-01-23T01:59:27.228Z,15.47
2023-01-23T02:02:06.130Z,14.37
2023-01-23T02:04:39.565Z,13.40
2023-01-23T02:07:14.961Z,15.77
2023-01-23T02:09:42.161Z,14.43
2023-01-23T02:12:09.264Z,13.03
2023-01-23T02:14:36.334Z,14.57
2023-01-23T02:17:03.643Z,13.27
2023-01-23T02:19:37.046Z,13.60
2023-01-23T02:22:32.815Z,12.60
2023-01-23T02:25:14.770Z,12.27
2023-01-23T02:27:42.948Z,12.93
2023-01-23T02:30:11.015Z,12.90
2023-01-23T02:32:37.987Z,13.53
2023-01-23T02:35:15.190Z,14.93
2023-01-23T02:37:46.843Z,13.97
2023-01-23T02:40:14.851Z,13.60
2023-01-23T02:42:44.835Z,12.67
2023-01-23T02:45:11.670Z,11.53
2023-01-23T02:47:38.443Z,14.53
2023-01-23T02:50:05.584Z,12.33
2023-01-23T02:52:34.149Z,11.80
2023-01-23T02:55:00.999Z,12.30
2023-01-23T02:57:27.801Z,13.13
2023-01-23T03:00:13.279Z,13.00
2023-01-23T03:02:40.140Z,12.57
2023-01-23T03:05:07.393Z,13.03
2023-01-23T03:07:34.602Z,13.13
2023-01-23T03:10:01.873Z,13.17
2023-01-23T03:12:28.706Z,12.30
2023-01-23T03:14:56.396Z,12.43
2023-01-23T03:17:23.685Z,13.93
2023-01-23T03:19:50.884Z,12.00
2023-01-23T03:22:17.689Z,12.57
2023-01-23T03:24:44.434Z,13.47
2023-01-23T03:27:11.301Z,11.73
2023-01-23T03:29:56.369Z,12.37
2023-01-23T03:32:23.227Z,12.63
2023-01-23T03:34:50.022Z,12.20
2023-01-23T03:37:17.521Z,12.20
2023-01-23T03:40:03.016Z,11.80
2023-01-23T03:42:30.306Z,12.77
2023-01-23T03:44:57.306Z,12.77
2023-01-23T03:47:26.317Z,12.63
2023-01-23T03:49:53.396Z,12.07
2023-01-23T03:52:20.269Z,12.43
2023-01-23T03:54:47.083Z,12.03
2023-01-23T03:57:13.928Z,12.97
2023-01-23T03:59:40.636Z,12.17
2023-01-23T04:02:07.714Z,12.33
2023-01-23T04:04:35.625Z,12.03
2023-01-23T04:07:02.958Z,12.10
2023-01-23T04:09:30.333Z,12.23
2023-01-23T04:11:58.775Z,11.97
2023-01-23T04:14:26.681Z,12.00
2023-01-23T04:16:54.077Z,13.47
2023-01-23T04:19:21.572Z,11.20
2023-01-23T04:21:49.106Z,12.80
2023-01-23T04:24:17.244Z,12.67
2023-01-23T04:26:44.909Z,12.13
2023-01-23T04:29:12.433Z,12.23
2023-01-23T04:31:39.398Z,12.67
2023-01-23T04:34:06.246Z,12.10
2023-01-23T04:36:33.041Z,11.70
2023-01-23T04:38:59.881Z,11.17
2023-01-23T04:41:28.852Z,11.83
2023-01-23T04:43:55.596Z,11.70
2023-01-23T04:46:22.431Z,12.03
2023-01-23T04:48:49.256Z,10.80
2023-01-23T04:51:16.311Z,12.00
2023-01-23T04:53:43.113Z,12.67
2023-01-23T04:56:10.073Z,11.50
2023-01-23T04:58:36.833Z,11.67
2023-01-23T05:01:05.467Z,11.27
2023-01-23T05:03:32.954Z,11.80
2023-01-23T05:05:59.791Z,12.37
2023-01-23T05:08:26.662Z,12.47
2023-01-23T05:10:53.405Z,11.87
2023-01-23T05:13:20.340Z,12.20
2023-01-23T05:15:47.137Z,11.47
2023-01-23T05:18:13.950Z,12.00
2023-01-23T05:20:40.770Z,11.93
2023-01-23T05:23:07.526Z,12.40
2023-01-23T05:25:34.361Z,12.47
2023-01-23T05:28:01.240Z,11.70
2023-01-23T05:30:28.038Z,11.13
2023-01-23T05:32:54.828Z,12.73
2023-01-23T05:35:21.886Z,11.93
2023-01-23T05:37:52.581Z,12.17
2023-01-23T05:40:20.464Z,12.27
2023-01-23T05:42:48.111Z,12.07
2023-01-23T05:45:15.606Z,12.00
2023-01-23T05:47:43.233Z,11.00
2023-01-23T05:50:17.949Z,11.53
2023-01-23T05:52:45.765Z,11.97
2023-01-23T05:55:13.086Z,12.00
2023-01-23T05:57:40.136Z,12.20
2023-01-23T06:00:08.554Z,12.50
2023-01-23T06:02:35.423Z,11.37
2023-01-23T06:05:02.987Z,12.97
2023-01-23T06:07:29.924Z,12.37
2023-01-23T06:09:56.782Z,11.87
2023-01-23T06:12:23.708Z,12.93
2023-01-23T06:14:50.657Z,12.07
2023-01-23T06:17:17.965Z,12.13
2023-01-23T06:19:44.940Z,11.07
2023-01-23T06:22:11.734Z,11.10
2023-01-23T06:24:38.753Z,11.40
2023-01-23T06:27:08.390Z,11.80
2023-01-23T06:29:36.160Z,12.67
2023-01-23T06:32:04.239Z,10.77
2023-01-23T06:34:31.226Z,10.97
2023-01-23T06:36:58.166Z,10.63
2023-01-23T06:39:25.023Z,11.67
2023-01-23T06:41:51.851Z,11.27
2023-01-23T06:44:18.674Z,11.80
2023-01-23T06:46:45.731Z,11.17
2023-01-23T06:49:12.613Z,12.33
2023-01-23T06:51:39.449Z,10.87
2023-01-23T06:54:06.322Z,11.27
2023-01-23T06:56:33.109Z,10.87
2023-01-23T06:58:59.880Z,12.13
2023-01-23T07:01:26.766Z,10.97
2023-01-23T07:03:53.603Z,11.27
2023-01-23T07:06:20.552Z,11.60
2023-01-23T07:08:47.505Z,10.80
2023-01-23T07:11:14.443Z,11.43
2023-01-23T07:13:41.335Z,11.33
2023-01-23T07:16:08.399Z,12.67
2023-01-23T07:18:36.082Z,11.90
2023-01-23T07:21:05.694Z,12.73
2023-01-23T07:23:33.116Z,12.57
2023-01-23T07:26:07.545Z,12.40
2023-01-23T07:28:34.354Z,12.80
2023-01-23T07:31:01.518Z,13.57
2023-01-23T07:33:28.512Z,12.83
2023-01-23T07:35:55.853Z,12.87
2023-01-23T07:38:25.894Z,12.80
2023-01-23T07:40:53.214Z,12.80
2023-01-23T07:43:20.098Z,12.47
2023-01-23T07:45:46.968Z,12.47
2023-01-23T07:48:14.157Z,12.47
2023-01-23T07:50:41.191Z,12.53
2023-01-23T07:53:08.500Z,12.33
2023-01-23T07:55:38.338Z,13.03
2023-01-23T07:58:05.229Z,12.93
2023-01-23T08:00:32.387Z,12.40
2023-01-23T08:02:59.453Z,13.17
2023-01-23T08:05:26.441Z,12.20
2023-01-23T08:08:07.319Z,14.40
2023-01-23T08:10:40.161Z,13.27
2023-01-23T08:13:07.307Z,13.30
2023-01-23T08:15:34.224Z,12.23
2023-01-23T08:18:01.330Z,13.27
2023-01-23T08:20:28.377Z,13.37
2023-01-23T08:22:56.283Z,13.50
2023-01-23T08:25:23.173Z,11.60
2023-01-23T08:27:50.042Z,13.10
2023-01-23T08:30:17.283Z,12.50
2023-01-23T08:32:44.403Z,12.80
2023-01-23T08:35:11.270Z,12.13
2023-01-23T08:37:38.127Z,12.97
2023-01-23T08:40:05.479Z,12.40
2023-01-23T08:42:32.418Z,12.07
2023-01-23T08:44:59.263Z,11.57
2023-01-23T08:47:26.094Z,11.10
2023-01-23T08:49:53.113Z,11.37
2023-01-23T08:52:20.035Z,10.37
2023-01-23T08:54:46.989Z,11.03
2023-01-23T08:57:13.796Z,11.43
2023-01-23T08:59:42.543Z,9.90
2023-01-23T09:02:12.675Z,10.20
2023-01-23T09:04:39.883Z,10.33
2023-01-23T09:07:06.747Z,10.00
2023-01-23T09:09:33.729Z,10.30
2023-01-23T09:12:00.884Z,9.77
2023-01-23T09:14:27.676Z,9.17
2023-01-23T09:16:54.618Z,8.90
2023-01-23T09:19:21.661Z,9.27
2023-01-23T09:21:48.520Z,9.83
2023-01-23T09:24:16.595Z,11.00
2023-01-23T09:26:43.709Z,10.37
2023-01-23T09:29:10.723Z,10.47
2023-01-23T09:31:37.808Z,10.90
2023-01-23T09:34:05.571Z,11.20
2023-01-23T09:36:42.441Z,12.17
2023-01-23T09:39:11.467Z,11.60
2023-01-23T09:41:40.313Z,12.13
2023-01-23T09:44:20.898Z,11.87
2023-01-23T09:47:02.504Z,12.03
2023-01-23T09:49:53.170Z,12.00
2023-01-23T09:52:24.093Z,11.60
2023-01-23T09:55:02.579Z,11.70
2023-01-23T09:57:35.617Z,11.50
2023-01-23T10:00:22.642Z,10.77
2023-01-23T10:02:50.243Z,10.33
2023-01-23T10:05:19.084Z,10.30
2023-01-23T10:08:03.558Z,10.07
2023-01-23T10:10:59.152Z,10.00
2023-01-23T10:13:48.668Z,8.67
2023-01-23T10:16:49.125Z,10.13
2023-01-23T10:19:35.846Z,9.60
2023-01-23T10:22:40.362Z,10.37
2023-01-23T10:25:28.927Z,10.33
2023-01-23T10:28:16.400Z,9.37
2023-01-23T10:30:49.934Z,9.47
2023-01-23T10:33:18.616Z,10.30
2023-01-23T10:36:02.231Z,10.00
2023-01-23T10:38:48.522Z,10.20
2023-01-23T10:41:23.366Z,9.93
2023-01-23T10:43:52.395Z,9.70
2023-01-23T10:46:30.684Z,10.87
2023-01-23T10:49:00.826Z,11.47
2023-01-23T10:51:44.102Z,10.67
2023-01-23T10:54:29.549Z,10.13
2023-01-23T10:57:08.312Z,11.23
2023-01-23T10:59:37.854Z,9.53
2023-01-23T11:02:20.149Z,9.23
2023-01-23T11:04:51.799Z,10.80
2023-01-23T11:07:23.328Z,10.53
2023-01-23T11:10:04.570Z,9.67
2023-01-23T11:12:34.183Z,10.07
2023-01-23T11:15:27.258Z,9.27
2023-01-23T11:17:57.482Z,9.90
2023-01-23T11:20:31.068Z,9.73
2023-01-23T11:23:12.654Z,10.13
2023-01-23T11:25:41.139Z,9.43
2023-01-23T11:28:30.011Z,9.93
2023-01-23T11:31:27.253Z,9.30
2023-01-23T11:33:59.169Z,9.87
2023-01-23T11:36:51.209Z,10.93
2023-01-23T11:39:21.077Z,9.97
2023-01-23T11:41:48.230Z,10.50
2023-01-23T11:44:23.097Z,10.10
2023-01-23T11:47:11.191Z,9.70
2023-01-23T11:49:50.214Z,10.17
2023-01-23T11:52:45.138Z,10.87
2023-01-23T11:55:34.566Z,10.33
2023-01-23T11:58:49.026Z,10.53
2023-01-23T12:01:33.823Z,10.17
2023-01-23T12:04:22.686Z,10.90
2023-01-23T12:06:52.547Z,9.07
2023-01-23T12:09:22.048Z,9.60
2023-01-23T12:12:18.886Z,10.07
2023-01-23T12:15:06.385Z,9.77
2023-01-23T12:17:48.154Z,9.33
2023-01-23T12:20:38.842Z,9.57
2023-01-23T12:23:18.080Z,9.17
2023-01-23T12:25:55.561Z,9.73
2023-01-23T12:28:34.107Z,11.10
2023-01-23T12:31:19.470Z,10.63
2023-01-23T12:34:16.852Z,10.00
2023-01-23T12:37:29.079Z,11.20
2023-01-23T12:40:14.021Z,10.33
2023-01-23T12:42:57.789Z,11.27
2023-01-23T12:45:28.327Z,10.83
2023-01-23T12:48:21.462Z,10.73
2023-01-23T12:50:58.342Z,11.13
2023-01-23T12:53:26.384Z,10.47
2023-01-23T12:55:59.755Z,10.60
2023-01-23T12:58:31.073Z,10.53
2023-01-23T13:01:33.325Z,11.57
2023-01-23T13:04:10.314Z,11.30
2023-01-23T13:06:40.991Z,11.20
2023-01-23T13:09:34.382Z,11.00
2023-01-23T13:12:20.588Z,11.07
2023-01-23T13:15:13.799Z,11.67
2023-01-23T13:17:50.474Z,11.20
2023-01-23T13:20:44.116Z,11.60
2023-01-23T13:23:21.069Z,10.77
2023-01-23T13:25:48.443Z,10.30
2023-01-23T13:28:44.485Z,10.43
2023-01-23T13:31:35.605Z,11.17
2023-01-23T13:34:16.047Z,11.13
2023-01-23T13:36:51.673Z,11.50
2023-01-23T13:39:19.693Z,11.80
2023-01-23T13:41:51.654Z,11.20
2023-01-23T13:44:41.540Z,11.17
2023-01-23T14:22:40.807Z,13.33
2023-01-23T14:25:17.546Z,14.33
2023-01-23T14:27:53.330Z,14.53
2023-01-23T14:30:32.746Z,14.13
2023-01-23T14:33:00.063Z,14.93
2023-01-23T14:35:32.746Z,15.37
2023-01-23T14:38:05.624Z,15.23
2023-01-23T14:40:48.837Z,15.17
2023-01-23T14:43:22.077Z,15.23
2023-01-23T14:45:57.913Z,15.47
2023-01-23T14:48:24.888Z,16.23
2023-01-23T14:51:21.955Z,16.07
2023-01-23T14:54:22.955Z,17.40
2023-01-23T14:56:51.116Z,16.70
2023-01-23T14:59:34.970Z,16.30
2023-01-23T15:02:21.975Z,16.97
2023-01-23T15:05:12.203Z,16.47
2023-01-23T15:07:47.780Z,16.73
2023-01-23T15:10:26.860Z,17.77
2023-01-23T15:13:05.164Z,17.37
2023-01-23T15:15:35.249Z,16.87
2023-01-23T15:18:17.950Z,18.07
2023-01-23T15:20:57.169Z,17.13
2023-01-23T15:23:31.745Z,16.93
2023-01-23T15:26:26.168Z,17.43
2023-01-23T15:29:18.665Z,17.87
2023-01-23T15:31:50.767Z,17.57
2023-01-23T15:34:30.841Z,16.73
2023-01-23T15:37:13.677Z,16.37
2023-01-23T15:39:51.305Z,16.53
2023-01-23T15:42:18.241Z,15.50
2023-01-23T15:44:45.299Z,16.00
2023-01-23T15:47:12.447Z,16.93
2023-01-23T15:49:40.899Z,16.97
2023-01-23T15:52:22.961Z,17.37
2023-01-23T15:55:03.590Z,16.80
2023-01-23T15:57:31.670Z,15.93
2023-01-23T15:59:58.868Z,17.37
2023-01-23T16:02:31.696Z,17.40
2023-01-23T16:05:02.253Z,16.30
2023-01-23T16:07:35.002Z,16.43
2023-01-23T16:10:05.969Z,16.70
2023-01-23T16:12:38.789Z,17.70
2023-01-23T16:15:15.022Z,17.80
2023-01-23T16:17:42.095Z,17.00
2023-01-23T16:20:15.272Z,16.13
2023-01-23T16:22:43.003Z,17.10
2023-01-23T16:25:38.279Z,18.17
2023-01-23T16:28:21.426Z,16.27
2023-01-23T16:30:51.004Z,16.47
2023-01-23T16:33:18.844Z,17.10
2023-01-23T16:35:46.433Z,17.53
2023-01-23T16:38:22.956Z,16.80
2023-01-23T16:40:53.447Z,17.20
2023-01-23T16:43:21.588Z,17.10
2023-01-23T16:45:48.477Z,16.00
2023-01-23T16:48:25.337Z,17.17
2023-01-23T16:50:56.783Z,15.30
2023-01-23T16:53:29.951Z,15.50
2023-01-23T16:55:59.096Z,16.50
2023-01-23T16:58:32.429Z,16.10
2023-01-23T17:01:05.157Z,15.63
2023-01-23T17:03:37.733Z,15.30
2023-01-23T17:06:04.870Z,16.17
2023-01-23T17:08:34.480Z,16.50
2023-01-23T17:11:04.084Z,16.63
2023-01-23T17:13:33.656Z,15.83
2023-01-23T17:16:02.647Z,15.67
2023-01-23T17:18:32.972Z,15.70
2023-01-23T17:21:11.365Z,17.03
2023-01-23T17:23:41.344Z,16.80
2023-01-23T17:26:16.593Z,16.60
2023-01-23T17:28:43.897Z,17.00
2023-01-23T17:31:28.576Z,16.27
2023-01-23T17:33:56.305Z,17.80
2023-01-23T17:36:27.895Z,17.83
2023-01-23T17:38:57.499Z,17.10
2023-01-23T17:41:24.389Z,17.40
2023-01-23T17:43:52.810Z,16.83
2023-01-23T17:46:26.875Z,16.70
2023-01-23T17:48:55.779Z,16.20
2023-01-23T17:51:23.940Z,17.03
2023-01-23T17:53:51.673Z,16.43
2023-01-23T17:56:18.888Z,15.63
2023-01-23T17:58:45.800Z,16.17
2023-01-23T18:01:24.531Z,16.30
2023-01-23T18:03:55.410Z,16.63
2023-01-23T18:06:22.285Z,15.57
2023-01-23T18:08:49.814Z,15.77
2023-01-23T18:11:25.031Z,15.60
2023-01-23T18:14:35.432Z,16.17
2023-01-23T18:17:02.711Z,16.00
2023-01-23T18:19:30.331Z,16.87
2023-01-23T18:21:58.389Z,16.00
2023-01-23T18:24:32.609Z,15.80
2023-01-23T18:27:12.104Z,15.80
2023-01-23T18:29:57.955Z,15.80
2023-01-23T18:32:50.057Z,16.93
2023-01-23T18:35:55.461Z,16.50
2023-01-23T18:38:52.364Z,16.37
2023-01-23T18:41:26.339Z,17.10
2023-01-23T18:44:01.676Z,18.23
2023-01-23T18:46:28.689Z,16.13
2023-01-23T18:48:56.690Z,16.83
2023-01-23T18:51:54.767Z,18.50
2023-01-23T18:54:37.960Z,17.13
2023-01-23T18:57:04.846Z,17.10
2023-01-23T18:59:49.975Z,16.63
2023-01-23T19:02:45.139Z,16.10
2023-01-23T19:05:16.019Z,15.30
2023-01-23T19:07:45.151Z,16.50
2023-01-23T19:10:15.084Z,15.43
2023-01-23T19:12:48.881Z,16.37
2023-01-23T19:15:22.116Z,15.97
2023-01-23T19:18:14.465Z,16.80
2023-01-23T19:20:50.657Z,17.00
2023-01-23T19:23:42.783Z,16.63
2023-01-23T19:26:14.691Z,16.63
2023-01-23T19:28:41.847Z,15.63
2023-01-23T19:31:21.104Z,16.17
2023-01-23T19:33:56.264Z,15.73
2023-01-23T19:36:24.551Z,15.17
2023-01-23T19:38:52.669Z,14.90
2023-01-23T19:41:23.826Z,15.27
2023-01-23T19:43:58.123Z,16.10
2023-01-23T19:46:31.021Z,16.23
2023-01-23T19:48:59.340Z,15.33
2023-01-23T19:51:27.690Z,14.83
2023-01-23T19:53:57.518Z,14.47
2023-01-23T19:56:24.541Z,15.23
2023-01-23T19:58:51.584Z,15.57
2023-01-23T20:01:49.802Z,16.00
2023-01-23T20:04:20.766Z,15.50
2023-01-23T20:06:54.199Z,15.17
2023-01-23T20:09:21.677Z,15.30
2023-01-23T20:11:48.664Z,15.03
2023-01-23T20:14:15.766Z,15.53
2023-01-23T20:16:43.417Z,15.00
2023-01-23T20:19:14.753Z,14.97
2023-01-23T20:21:42.091Z,16.33
2023-01-23T20:24:12.173Z,15.03
2023-01-23T20:26:39.864Z,14.77
2023-01-23T20:29:12.160Z,14.67
2023-01-23T20:31:42.137Z,14.53
2023-01-23T20:34:12.137Z,14.27
2023-01-23T20:36:41.775Z,14.70
2023-01-23T20:39:10.602Z,14.43
2023-01-23T20:41:38.813Z,15.40
2023-01-23T20:44:06.050Z,16.37
2023-01-23T20:46:35.752Z,15.27
2023-01-23T20:49:03.514Z,16.00
2023-01-23T20:51:30.454Z,14.97
2023-01-23T20:54:00.336Z,16.83
2023-01-23T20:56:29.933Z,15.97
2023-01-23T20:59:18.843Z,16.67
2023-01-23T21:02:05.332Z,15.83
2023-01-23T21:04:35.233Z,16.53
2023-01-23T21:07:05.941Z,15.93
2023-01-23T21:09:32.955Z,15.40
2023-01-23T21:11:59.968Z,15.83
2023-01-23T21:14:27.189Z,16.77
2023-01-23T21:16:54.490Z,14.80
2023-01-23T21:19:21.684Z,15.30
2023-01-23T21:21:48.701Z,15.97
2023-01-23T21:24:16.488Z,14.80
2023-01-23T21:26:43.859Z,15.20
2023-01-23T21:29:11.729Z,15.80
2023-01-23T21:31:39.488Z,15.13
2023-01-23T21:34:12.521Z,16.63
2023-01-23T21:36:41.236Z,15.23
2023-01-23T21:39:10.412Z,15.37
2023-01-23T21:41:37.745Z,15.03
2023-01-23T21:44:04.867Z,16.57
2023-01-23T21:46:32.012Z,14.00
2023-01-23T21:48:59.464Z,15.77
2023-01-23T21:51:27.910Z,16.07
2023-01-23T21:53:55.156Z,15.30
2023-01-23T21:56:23.657Z,15.70
2023-01-23T21:58:51.060Z,15.07
2023-01-23T22:01:41.125Z,15.03
2023-01-23T22:04:18.687Z,14.90
2023-01-23T22:06:46.781Z,16.00
2023-01-23T22:09:18.449Z,14.87
2023-01-23T22:11:46.652Z,15.57
2023-01-23T22:14:14.139Z,15.13
2023-01-23T22:16:48.522Z,13.97
2023-01-23T22:19:18.473Z,14.70
2023-01-23T22:21:46.649Z,15.90
2023-01-23T22:24:14.430Z,15.70
2023-01-23T22:26:41.389Z,14.67
2023-01-23T22:29:08.854Z,13.40
2023-01-23T22:31:36.163Z,13.63
2023-01-23T22:34:03.473Z,14.00
2023-01-23T22:36:30.214Z,16.03
2023-01-23T22:38:57.188Z,15.07
2023-01-23T22:41:24.740Z,12.97
2023-01-23T22:43:55.659Z,13.23
2023-01-23T22:46:23.962Z,13.33
2023-01-23T22:48:51.341Z,14.13
2023-01-23T22:51:19.931Z,12.80
2023-01-23T22:53:47.175Z,12.73
2023-01-23T22:56:14.812Z,11.93
2023-01-23T22:58:48.779Z,13.33
2023-01-23T23:01:17.024Z,13.53
2023-01-23T23:03:45.215Z,12.27
2023-01-23T23:06:14.385Z,11.37
2023-01-23T23:08:41.900Z,10.50
2023-01-23T23:11:16.716Z,9.67
2023-01-23T23:13:43.771Z,8.30
2023-01-23T23:16:20.856Z,9.43
2023-01-23T23:18:49.520Z,9.07
2023-01-23T23:21:18.569Z,8.63
2023-01-23T23:23:45.867Z,8.83
2023-01-23T23:26:13.822Z,8.77
2023-01-23T23:28:41.014Z,9.70
2023-01-23T23:31:09.206Z,9.60
2023-01-23T23:33:36.732Z,9.60
2023-01-23T23:36:03.967Z,9.60
2023-01-23T23:38:30.801Z,10.03
2023-01-23T23:41:03.455Z,9.33
2023-01-23T23:43:30.528Z,9.40
2023-01-23T23:45:59.716Z,8.70
2023-01-23T23:48:28.009Z,9.50
2023-01-23T23:50:55.104Z,8.87
2023-01-23T23:53:23.226Z,10.17
2023-01-23T23:55:50.133Z,9.10
2023-01-23T23:58:17.167Z,9.80
